Adak, AK

10:05 PM HADT on October 25, 2014 (GMT -0900)
Adak | Change Station
CLOSE
Current Station
Airport
Location: Adak,
Elevation: 13 ft
Nearby Weather Stations

Elev 13 ft 51.88 °N, 176.65 °W | Updated 9 minutes ago

Overcast
Overcast
46 °F
Feels Like 40 °F
N
14
Wind Variable Wind from WSW
Gusts 21 mph

Today
High -- | Low -- °F
--% Chance of Precip.
Yesterday
High -- | Low -- °F
Precip. -- in
9:29 AM 7:31 PM
Waxing Crescent, 6% visible
Pressure 30.02 in
Visibility 7.0 miles
Clouds Overcast 4900 ft
Windchill 40 °F
Dew Point 39 °F
Humidity 76%
Rainfall 0.00 in
Snow Depth Not available.
UV 0 out of 12
Pollen Not available.
Air Quality Not available.
Flu Activity Local Activity
METAR PADK 260656Z AUTO 24012G18KT 7SM OVC049 08/04 A3002 RMK AO1

More Conditions Fewer Conditions

Pressure 30.02 in
Visibility 7.0 miles
Clouds Overcast 4900 ft
Windchill 40 °F
Dew Point 39 °F
Humidity 76%
Rainfall 0.00 in
Snow Depth Not available.
UV 0 out of 12
Pollen Not available.
Air Quality Not available.
Flu Activity Local Activity
METAR PADK 260656Z AUTO 24012G18KT 7SM OVC049 08/04 A3002 RMK AO1

More Conditions Fewer Conditions

10-Day Weather Forecast

Almanac

Astronomy

Oct. 25, 2014 Rise Set
Actual Time 9:29 AM HADT 7:31 PM HADT
Civil Twilight 8:54 AM HADT 8:06 PM HADT
Nautical Twilight 8:15 AM HADT 8:45 PM HADT
Astronomical Twilight 7:36 AM HADT 9:24 PM HADT
Moon 11:33 AM HADT (10/25) 8:53 PM HADT (10/25)
Length of Visible Light 11h 11m
Length of Day
10h 02m
Tomorrow will be 3m 44s shorter.
Waxing Crescent, 6% of the Moon is Illuminated
Oct 26
Waxing Crescent
Oct 30
First Quarter
Nov 6
Full
Nov 14
Last Quarter
Nov 22
New

Community

WunderPhotos

Upload Photos

1,765,115 photos uploaded!

Nearby

Snow Depth

Station Depth Elevation
Rocky Point 3 in 500 ft
Pargon Creek 0 in 300 ft
Port Graham 0 in 300 ft
Mcneil Canyon 1 in 1320 ft
Cooper Lake 1 in 1200 ft

Earthquake Activity

City Distance Mag. Time & Date
No recent earthquake activity has been reported nearby.
Minimum magnitude displayed is 2.5.

Coastal Water Temperatures

Place Temperature
No Stations Reporting

Nearby Weather Stations